Time,TemperatureF,DewpointF,PressureIn,WindDirection,WindDirectionDegrees,WindSpeedMPH,WindSpeedGustMPH,Humidity,HourlyPrecipIn,Conditions,Clouds,dailyrainin,SoftwareType,DateUTC
2013-01-17 00:00:00,33.7,26.5,29.81,West,270,3.1,6.5,75,0.00,,,0.00,WUHU216HW,2013-01-17 05:00:00,
2013-01-17 00:01:00,33.7,26.5,29.81,West,270,3.1,5.6,75,0.00,,,0.00,WUHU216HW,2013-01-17 05:01:00,
2013-01-17 00:02:00,33.7,26.5,29.81,WSW,248,3.4,4.9,75,0.00,,,0.00,WUHU216HW,2013-01-17 05:02:00,
2013-01-17 00:07:00,33.7,26.5,29.81,WSW,248,2.9,4.9,75,0.00,,,0.00,WUHU216HW,2013-01-17 05:07:00,
2013-01-17 00:12:00,33.7,26.8,29.81,West,270,2.5,6.0,76,0.00,,,0.00,WUHU216HW,2013-01-17 05:12:00,
2013-01-17 00:17:00,33.7,26.8,29.82,WSW,248,3.6,7.2,76,0.00,,,0.00,WUHU216HW,2013-01-17 05:17:00,
2013-01-17 00:22:00,33.7,26.8,29.82,West,270,4.7,7.2,76,0.00,,,0.00,WUHU216HW,2013-01-17 05:22:00,
2013-01-17 00:27:00,33.7,26.8,29.82,NW,315,5.1,6.7,76,0.00,,,0.00,WUHU216HW,2013-01-17 05:27:00,
2013-01-17 00:32:00,33.7,26.8,29.82,West,270,4.0,6.7,76,0.00,,,0.00,WUHU216HW,2013-01-17 05:32:00,
2013-01-17 00:37:00,33.8,27.0,29.82,South,180,3.4,6.5,76,0.00,,,0.00,WUHU216HW,2013-01-17 05:37:00,
2013-01-17 00:42:00,33.8,27.0,29.82,WSW,248,2.0,6.5,76,0.00,,,0.00,WUHU216HW,2013-01-17 05:42:00,
2013-01-17 00:47:00,33.8,27.0,29.82,SW,225,3.8,8.5,76,0.00,,,0.00,WUHU216HW,2013-01-17 05:47:00,
2013-01-17 00:52:00,33.8,27.0,29.83,West,270,3.6,8.5,76,0.00,,,0.00,WUHU216HW,2013-01-17 05:52:00,
2013-01-17 00:57:00,33.8,27.0,29.83,WSW,248,1.8,4.7,76,0.00,,,0.00,WUHU216HW,2013-01-17 05:57:00,
2013-01-17 01:02:00,33.8,27.0,29.84,WSW,248,2.5,5.1,76,0.00,,,0.00,WUHU216HW,2013-01-17 06:02:00,
2013-01-17 01:07:00,33.8,27.0,29.84,WSW,248,3.6,5.6,76,0.00,,,0.00,WUHU216HW,2013-01-17 06:07:00,
2013-01-17 01:12:00,33.8,27.0,29.84,WSW,248,2.2,5.6,76,0.00,,,0.00,WUHU216HW,2013-01-17 06:12:00,
2013-01-17 01:17:00,33.8,27.3,29.84,WSW,248,3.6,3.8,77,0.00,,,0.00,WUHU216HW,2013-01-17 06:17:00,
2013-01-17 01:22:00,33.8,27.3,29.85,West,270,3.8,4.5,77,0.00,,,0.00,WUHU216HW,2013-01-17 06:22:00,
2013-01-17 01:27:00,33.8,27.0,29.85,SW,225,1.8,4.7,76,0.00,,,0.00,WUHU216HW,2013-01-17 06:27:00,
2013-01-17 01:32:00,33.8,27.3,29.85,WSW,248,2.9,4.7,77,0.00,,,0.00,WUHU216HW,2013-01-17 06:32:00,
2013-01-17 01:37:00,33.8,27.3,29.85,SSE,158,2.2,4.3,77,0.00,,,0.00,WUHU216HW,2013-01-17 06:37:00,
2013-01-17 01:42:00,33.8,27.6,29.85,West,270,1.8,4.3,78,0.00,,,0.00,WUHU216HW,2013-01-17 06:42:00,
2013-01-17 01:47:00,34.0,27.5,29.85,WSW,248,1.3,4.7,77,0.00,,,0.00,WUHU216HW,2013-01-17 06:47:00,
2013-01-17 01:52:00,34.0,27.8,29.86,WSW,248,3.8,4.7,78,0.00,,,0.00,WUHU216HW,2013-01-17 06:52:00,
2013-01-17 01:57:00,34.0,27.5,29.86,West,270,3.1,3.8,77,0.00,,,0.00,WUHU216HW,2013-01-17 06:57:00,
2013-01-17 02:02:00,34.0,27.8,29.86,SE,135,3.4,4.0,78,0.00,,,0.00,WUHU216HW,2013-01-17 07:02:00,
2013-01-17 02:07:00,34.0,27.8,29.86,SW,225,1.8,4.0,78,0.00,,,0.00,WUHU216HW,2013-01-17 07:07:00,
2013-01-17 02:12:00,34.0,27.5,29.86,SW,225,2.0,2.9,77,0.00,,,0.00,WUHU216HW,2013-01-17 07:12:00,
2013-01-17 02:17:00,34.0,27.8,29.86,WSW,248,3.8,3.8,78,0.00,,,0.00,WUHU216HW,2013-01-17 07:17:00,
2013-01-17 02:22:00,34.0,27.5,29.87,West,270,2.5,3.8,77,0.00,,,0.00,WUHU216HW,2013-01-17 07:22:00,
2013-01-17 02:27:00,33.8,27.3,29.87,West,270,1.8,3.1,77,0.00,,,0.00,WUHU216HW,2013-01-17 07:27:00,
2013-01-17 02:32:00,34.0,27.8,29.87,West,270,2.5,3.1,78,0.00,,,0.00,WUHU216HW,2013-01-17 07:32:00,
2013-01-17 02:37:00,34.0,27.8,29.88,WSW,248,1.3,2.5,78,0.00,,,0.00,WUHU216HW,2013-01-17 07:37:00,
2013-01-17 02:42:00,34.0,27.8,29.88,WSW,248,2.2,2.9,78,0.00,,,0.00,WUHU216HW,2013-01-17 07:42:00,
2013-01-17 02:47:00,34.2,28.0,29.88,WSW,248,1.3,4.0,78,0.00,,,0.00,WUHU216HW,2013-01-17 07:47:00,
2013-01-17 02:52:00,34.0,27.8,29.88,West,270,1.8,4.0,78,0.00,,,0.00,WUHU216HW,2013-01-17 07:52:00,
2013-01-17 02:57:00,34.2,28.0,29.88,SW,225,4.0,4.0,78,0.00,,,0.00,WUHU216HW,2013-01-17 07:57:00,
2013-01-17 03:02:00,34.2,28.0,29.88,SW,225,2.7,4.0,78,0.00,,,0.00,WUHU216HW,2013-01-17 08:02:00,
2013-01-17 03:07:00,34.2,28.0,29.88,WSW,248,0.4,3.6,78,0.00,,,0.00,WUHU216HW,2013-01-17 08:07:00,
2013-01-17 03:12:00,34.2,28.0,29.88,West,270,4.0,4.0,78,0.00,,,0.00,WUHU216HW,2013-01-17 08:12:00,
2013-01-17 03:17:00,34.2,28.0,29.88,NW,315,0.4,4.0,78,0.00,,,0.00,WUHU216HW,2013-01-17 08:17:00,
2013-01-17 03:22:00,34.4,28.2,29.88,SW,225,2.7,2.7,78,0.00,,,0.00,WUHU216HW,2013-01-17 08:22:00,
2013-01-17 03:27:00,34.4,28.2,29.88,WSW,248,1.6,2.7,78,0.00,,,0.00,WUHU216HW,2013-01-17 08:27:00,
2013-01-17 03:32:00,34.4,28.2,29.88,West,270,2.0,2.7,78,0.00,,,0.00,WUHU216HW,2013-01-17 08:32:00,
2013-01-17 03:37:00,34.4,28.2,29.88,West,270,1.8,3.4,78,0.00,,,0.00,WUHU216HW,2013-01-17 08:37:00,
2013-01-17 03:42:00,34.4,28.2,29.88,West,270,1.6,3.4,78,0.00,,,0.00,WUHU216HW,2013-01-17 08:42:00,
2013-01-17 03:47:00,34.4,28.2,29.88,WSW,248,3.4,3.4,78,0.00,,,0.00,WUHU216HW,2013-01-17 08:47:00,
2013-01-17 03:52:00,34.4,28.2,29.88,WSW,248,0.4,3.4,78,0.00,,,0.00,WUHU216HW,2013-01-17 08:52:00,
2013-01-17 03:57:00,34.6,28.4,29.88,WNW,293,0.9,3.4,78,0.00,,,0.00,WUHU216HW,2013-01-17 08:57:00,
2013-01-17 04:02:00,34.4,28.2,29.88,WSW,248,1.8,3.4,78,0.00,,,0.00,WUHU216HW,2013-01-17 09:02:00,
2013-01-17 04:07:00,34.4,28.2,29.88,West,270,1.6,2.5,78,0.00,,,0.00,WUHU216HW,2013-01-17 09:07:00,
2013-01-17 04:12:00,34.4,28.2,29.88,NW,315,1.1,2.5,78,0.00,,,0.00,WUHU216HW,2013-01-17 09:12:00,
2013-01-17 04:17:00,34.4,28.2,29.88,WSW,248,1.6,2.5,78,0.00,,,0.00,WUHU216HW,2013-01-17 09:17:00,
2013-01-17 04:22:00,34.4,28.2,29.88,SW,225,1.6,2.0,78,0.00,,,0.00,WUHU216HW,2013-01-17 09:22:00,
2013-01-17 04:27:00,34.4,28.2,29.88,WSW,248,2.0,2.9,78,0.00,,,0.00,WUHU216HW,2013-01-17 09:27:00,
2013-01-17 04:32:00,34.4,28.2,29.88,WSW,248,0.7,2.9,78,0.00,,,0.00,WUHU216HW,2013-01-17 09:32:00,
2013-01-17 04:37:00,34.4,28.2,29.88,West,270,0.2,2.0,78,0.00,,,0.00,WUHU216HW,2013-01-17 09:37:00,
2013-01-17 04:42:00,34.4,28.2,29.88,WSW,248,1.6,2.0,78,0.00,,,0.00,WUHU216HW,2013-01-17 09:42:00,
2013-01-17 04:47:00,34.4,28.2,29.89,WSW,248,1.8,3.4,78,0.00,,,0.00,WUHU216HW,2013-01-17 09:47:00,
2013-01-17 04:52:00,34.2,28.0,29.89,WSW,248,4.0,4.0,78,0.00,,,0.00,WUHU216HW,2013-01-17 09:52:00,
2013-01-17 04:57:00,33.8,27.9,29.88,West,270,1.6,4.0,79,0.00,,,0.00,WUHU216HW,2013-01-17 09:57:00,
2013-01-17 05:02:00,33.7,28.1,29.89,WSW,248,1.8,3.4,80,0.00,,,0.00,WUHU216HW,2013-01-17 10:02:00,
2013-01-17 05:07:00,33.7,28.1,29.90,SW,225,0.4,3.4,80,0.00,,,0.00,WUHU216HW,2013-01-17 10:07:00,
2013-01-17 05:12:00,33.5,27.9,29.90,SW,225,1.1,3.1,80,0.00,,,0.00,WUHU216HW,2013-01-17 10:12:00,
2013-01-17 05:17:00,33.5,28.3,29.90,WSW,248,2.0,4.0,81,0.00,,,0.00,WUHU216HW,2013-01-17 10:17:00,
2013-01-17 05:22:00,33.5,28.3,29.90,WSW,248,2.5,4.0,81,0.00,,,0.00,WUHU216HW,2013-01-17 10:22:00,
2013-01-17 05:27:00,33.5,27.9,29.91,WSW,248,1.8,2.5,80,0.00,,,0.00,WUHU216HW,2013-01-17 10:27:00,
2013-01-17 05:32:00,33.5,27.9,29.91,West,270,3.4,3.4,80,0.00,,,0.00,WUHU216HW,2013-01-17 10:32:00,
2013-01-17 05:37:00,33.5,28.5,29.90,WSW,248,1.3,3.4,82,0.00,,,0.00,WUHU216HW,2013-01-17 10:37:00,
2013-01-17 05:42:00,33.5,28.5,29.91,WSW,248,1.3,2.9,82,0.00,,,0.00,WUHU216HW,2013-01-17 10:42:00,
2013-01-17 05:47:00,33.3,28.1,29.92,West,270,0.9,2.5,81,0.00,,,0.00,WUHU216HW,2013-01-17 10:47:00,
2013-01-17 05:52:00,33.1,27.9,29.91,West,270,0.7,3.1,81,0.00,,,0.00,WUHU216HW,2013-01-17 10:52:00,
2013-01-17 05:57:00,32.9,27.7,29.92,WSW,248,0.0,3.1,81,0.00,,,0.00,WUHU216HW,2013-01-17 10:57:00,
2013-01-17 06:02:00,32.8,27.9,29.92,NNW,338,0.4,2.0,82,0.00,,,0.00,WUHU216HW,2013-01-17 11:02:00,
2013-01-17 06:07:00,32.6,28.0,29.92,West,270,1.1,1.6,83,0.00,,,0.00,WUHU216HW,2013-01-17 11:07:00,
2013-01-17 06:12:00,32.4,27.8,29.92,WSW,248,0.9,1.6,83,0.00,,,0.00,WUHU216HW,2013-01-17 11:12:00,
2013-01-17 06:17:00,32.4,27.8,29.92,West,270,0.0,3.1,83,0.00,,,0.00,WUHU216HW,2013-01-17 11:17:00,
2013-01-17 06:22:00,32.0,27.2,29.93,SW,225,0.2,3.1,82,0.00,,,0.00,WUHU216HW,2013-01-17 11:22:00,
2013-01-17 06:27:00,31.9,27.0,29.93,WSW,248,0.0,1.1,82,0.00,,,0.00,WUHU216HW,2013-01-17 11:27:00,
2013-01-17 06:32:00,31.7,26.8,29.94,WSW,248,0.2,1.1,82,0.00,,,0.00,WUHU216HW,2013-01-17 11:32:00,
2013-01-17 06:37:00,31.3,26.8,29.93,West,270,0.0,0.7,83,0.00,,,0.00,WUHU216HW,2013-01-17 11:37:00,
2013-01-17 06:42:00,31.3,26.8,29.94,West,270,0.0,0.7,83,0.00,,,0.00,WUHU216HW,2013-01-17 11:42:00,
2013-01-17 06:47:00,31.0,26.7,29.94,WSW,248,0.4,1.1,84,0.00,,,0.00,WUHU216HW,2013-01-17 11:47:00,
2013-01-17 06:52:00,30.8,26.6,29.94,WSW,248,1.1,1.1,84,0.00,,,0.00,WUHU216HW,2013-01-17 11:52:00,
2013-01-17 06:57:00,30.6,26.6,29.94,SW,225,0.0,1.1,85,0.00,,,0.00,WUHU216HW,2013-01-17 11:57:00,
2013-01-17 07:02:00,30.6,26.6,29.95,SW,225,0.0,0.4,85,0.00,,,0.00,WUHU216HW,2013-01-17 12:02:00,
2013-01-17 07:07:00,30.2,26.3,29.95,SW,225,0.0,0.4,85,0.00,,,0.00,WUHU216HW,2013-01-17 12:07:00,
2013-01-17 07:12:00,30.1,26.1,29.95,SW,225,0.0,0.2,85,0.00,,,0.00,WUHU216HW,2013-01-17 12:12:00,
2013-01-17 07:17:00,29.7,25.5,29.95,SW,225,0.0,0.2,84,0.00,,,0.00,WUHU216HW,2013-01-17 12:17:00,
2013-01-17 07:22:00,29.3,25.1,29.95,SW,225,0.0,0.0,84,0.00,,,0.00,WUHU216HW,2013-01-17 12:22:00,
2013-01-17 07:27:00,29.0,24.8,29.95,SW,225,0.0,0.0,84,0.00,,,0.00,WUHU216HW,2013-01-17 12:27:00,
2013-01-17 07:32:00,28.6,24.4,29.96,SW,225,0.0,0.2,84,0.00,,,0.00,WUHU216HW,2013-01-17 12:32:00,
2013-01-17 07:37:00,28.4,24.5,29.96,SW,225,0.0,0.4,85,0.00,,,0.00,WUHU216HW,2013-01-17 12:37:00,
2013-01-17 07:42:00,28.3,24.3,29.95,SW,225,0.0,0.4,85,0.00,,,0.00,WUHU216HW,2013-01-17 12:42:00,
2013-01-17 07:47:00,27.9,23.7,29.95,SW,225,0.0,0.0,84,0.00,,,0.00,WUHU216HW,2013-01-17 12:47:00,
2013-01-17 07:52:00,27.7,23.8,29.95,SW,225,0.0,0.4,85,0.00,,,0.00,WUHU216HW,2013-01-17 12:52:00,
2013-01-17 07:57:00,27.7,23.8,29.95,SW,225,0.0,0.4,85,0.00,,,0.00,WUHU216HW,2013-01-17 12:57:00,
2013-01-17 08:02:00,27.5,23.6,29.95,SW,225,0.0,0.0,85,0.00,,,0.00,WUHU216HW,2013-01-17 13:02:00,
2013-01-17 08:07:00,27.4,23.4,29.95,SW,225,0.0,0.4,85,0.00,,,0.00,WUHU216HW,2013-01-17 13:07:00,
2013-01-17 08:12:00,27.4,23.4,29.95,WSW,248,0.0,0.9,85,0.00,,,0.00,WUHU216HW,2013-01-17 13:12:00,
2013-01-17 08:17:00,27.4,23.7,29.96,WSW,248,0.0,0.9,86,0.00,,,0.00,WUHU216HW,2013-01-17 13:17:00,
2013-01-17 08:22:00,27.5,24.1,29.96,WSW,248,0.0,0.0,87,0.00,,,0.00,WUHU216HW,2013-01-17 13:22:00,
2013-01-17 08:27:00,27.7,24.0,29.97,WSW,248,0.0,0.0,86,0.00,,,0.00,WUHU216HW,2013-01-17 13:27:00,
2013-01-17 08:32:00,27.7,24.3,29.96,WSW,248,0.0,0.0,87,0.00,,,0.00,WUHU216HW,2013-01-17 13:32:00,
2013-01-17 08:37:00,27.7,24.3,29.96,WSW,248,0.0,0.2,87,0.00,,,0.00,WUHU216HW,2013-01-17 13:37:00,
2013-01-17 08:42:00,27.7,24.0,29.97,SW,225,0.0,0.4,86,0.00,,,0.00,WUHU216HW,2013-01-17 13:42:00,
2013-01-17 08:47:00,27.7,24.3,29.98,SW,225,0.2,1.1,87,0.00,,,0.00,WUHU216HW,2013-01-17 13:47:00,
2013-01-17 08:52:00,27.7,24.3,29.97,SW,225,0.0,1.1,87,0.00,,,0.00,WUHU216HW,2013-01-17 13:52:00,
2013-01-17 08:57:00,27.7,24.3,29.97,SW,225,0.0,0.0,87,0.00,,,0.00,WUHU216HW,2013-01-17 13:57:00,
2013-01-17 09:02:00,27.9,24.5,29.98,SW,225,0.0,0.0,87,0.00,,,0.00,WUHU216HW,2013-01-17 14:02:00,
2013-01-17 09:07:00,27.9,24.5,29.98,SW,225,0.0,0.0,87,0.00,,,0.00,WUHU216HW,2013-01-17 14:07:00,
2013-01-17 09:24:00,28.4,25.4,29.99,SW,225,0.0,0.0,88,0.00,,,0.00,WUHU216HW,2013-01-17 14:24:00,
2013-01-17 09:29:00,28.6,25.2,29.99,SW,225,0.0,0.0,87,0.00,,,0.00,WUHU216HW,2013-01-17 14:29:00,
2013-01-17 09:34:00,28.6,25.2,29.99,SW,225,0.0,0.0,87,0.00,,,0.00,WUHU216HW,2013-01-17 14:34:00,
2013-01-17 10:00:00,28.8,25.4,30.01,SSW,203,0.0,0.0,87,0.00,,,0.00,WUHU216HW,2013-01-17 15:00:00,
2013-01-17 10:05:00,29.0,25.6,30.01,WSW,248,0.0,0.2,87,0.00,,,0.00,WUHU216HW,2013-01-17 15:05:00,
2013-01-17 10:10:00,29.2,25.7,30.01,WSW,248,0.2,1.1,87,0.00,,,0.00,WUHU216HW,2013-01-17 15:10:00,
2013-01-17 10:15:00,29.7,26.7,30.01,West,270,0.2,1.1,88,0.00,,,0.00,WUHU216HW,2013-01-17 15:15:00,
2013-01-17 10:20:00,30.4,27.6,30.01,SW,225,0.4,1.6,89,0.00,,,0.00,WUHU216HW,2013-01-17 15:20:00,
2013-01-17 10:25:00,31.0,27.9,30.02,South,180,1.1,1.6,88,0.00,,,0.00,WUHU216HW,2013-01-17 15:25:00,
2013-01-17 10:30:00,31.5,28.5,30.02,WSW,248,1.8,2.7,88,0.00,,,0.00,WUHU216HW,2013-01-17 15:30:00,
2013-01-17 10:35:00,32.2,28.5,30.02,NNW,338,1.3,2.7,86,0.00,,,0.00,WUHU216HW,2013-01-17 15:35:00,
2013-01-17 10:40:00,32.9,27.7,30.02,NW,315,2.0,2.0,81,0.00,,,0.00,WUHU216HW,2013-01-17 15:40:00,
2013-01-17 10:45:00,33.5,28.3,30.02,ENE,68,0.4,2.2,81,0.00,,,0.00,WUHU216HW,2013-01-17 15:45:00,
2013-01-17 10:50:00,33.8,28.5,30.02,NNW,338,0.7,2.2,81,0.00,,,0.00,WUHU216HW,2013-01-17 15:50:00,
2013-01-17 10:55:00,34.2,27.4,30.02,NE,45,2.5,2.5,76,0.00,,,0.00,WUHU216HW,2013-01-17 15:55:00,
2013-01-17 11:00:00,34.9,27.1,30.02,West,270,2.9,4.0,73,0.00,,,0.00,WUHU216HW,2013-01-17 16:00:00,
2013-01-17 11:05:00,34.9,27.4,30.02,WNW,293,1.3,4.0,74,0.00,,,0.00,WUHU216HW,2013-01-17 16:05:00,
2013-01-17 11:10:00,35.1,27.3,30.02,NW,315,1.6,3.4,73,0.00,,,0.00,WUHU216HW,2013-01-17 16:10:00,
2013-01-17 11:15:00,35.3,26.8,30.02,WNW,293,3.8,3.8,71,0.00,,,0.00,WUHU216HW,2013-01-17 16:15:00,
2013-01-17 11:20:00,35.1,25.2,30.02,NNW,338,3.4,4.7,67,0.00,,,0.00,WUHU216HW,2013-01-17 16:20:00,
2013-01-17 11:25:00,35.1,25.2,30.02,NW,315,1.8,4.7,67,0.00,,,0.00,WUHU216HW,2013-01-17 16:25:00,
2013-01-17 11:30:00,35.6,25.7,30.01,WSW,248,1.8,6.0,67,0.00,,,0.00,WUHU216HW,2013-01-17 16:30:00,
2013-01-17 11:35:00,35.8,25.9,30.01,WNW,293,4.7,6.0,67,0.00,,,0.00,WUHU216HW,2013-01-17 16:35:00,
2013-01-17 11:40:00,35.6,25.4,30.01,NE,45,2.2,6.7,66,0.00,,,0.00,WUHU216HW,2013-01-17 16:40:00,
2013-01-17 11:45:00,35.6,25.7,30.01,NNE,23,4.3,6.7,67,0.00,,,0.00,WUHU216HW,2013-01-17 16:45:00,
2013-01-17 11:50:00,35.8,25.9,30.01,NNE,23,3.6,4.7,67,0.00,,,0.00,WUHU216HW,2013-01-17 16:50:00,
2013-01-17 11:55:00,35.8,25.9,30.01,NNE,23,3.6,3.6,67,0.00,,,0.00,WUHU216HW,2013-01-17 16:55:00,
2013-01-17 12:00:00,34.9,24.7,30.00,NNW,338,2.5,2.5,66,0.00,,,0.00,WUHU216HW,2013-01-17 17:00:00,
2013-01-17 12:05:00,35.1,25.2,30.00,WSW,248,1.3,4.3,67,0.00,,,0.00,WUHU216HW,2013-01-17 17:05:00,
2013-01-17 12:10:00,35.5,25.2,30.00,North,0,2.5,4.3,66,0.00,,,0.00,WUHU216HW,2013-01-17 17:10:00,
2013-01-17 12:15:00,36.0,26.1,30.00,WSW,248,0.4,4.7,67,0.00,,,0.00,WUHU216HW,2013-01-17 17:15:00,
2013-01-17 12:20:00,36.4,25.8,30.00,WNW,293,2.5,4.7,65,0.00,,,0.00,WUHU216HW,2013-01-17 17:20:00,
2013-01-17 12:25:00,36.5,25.1,29.99,NNE,23,2.5,3.6,63,0.00,,,0.00,WUHU216HW,2013-01-17 17:25:00,
2013-01-17 12:30:00,36.5,24.8,29.99,NNW,338,2.9,4.9,62,0.00,,,0.00,WUHU216HW,2013-01-17 17:30:00,
2013-01-17 12:35:00,36.4,24.9,29.99,NNE,23,5.4,5.4,63,0.00,,,0.00,WUHU216HW,2013-01-17 17:35:00,
2013-01-17 12:40:00,36.4,24.9,29.99,WNW,293,3.6,5.8,63,0.00,,,0.00,WUHU216HW,2013-01-17 17:40:00,
2013-01-17 12:45:00,36.4,24.6,29.99,WNW,293,2.7,5.8,62,0.00,,,0.00,WUHU216HW,2013-01-17 17:45:00,
2013-01-17 12:50:00,36.5,25.1,29.99,SW,225,3.4,5.1,63,0.00,,,0.00,WUHU216HW,2013-01-17 17:50:00,
2013-01-17 12:55:00,36.9,25.5,29.98,West,270,5.1,5.1,63,0.00,,,0.00,WUHU216HW,2013-01-17 17:55:00,
2013-01-17 13:00:00,37.1,25.3,29.98,West,270,1.1,5.1,62,0.00,,,0.00,WUHU216HW,2013-01-17 18:00:00,
2013-01-17 13:05:00,37.3,25.5,29.98,NW,315,4.0,4.0,62,0.00,,,0.00,WUHU216HW,2013-01-17 18:05:00,
2013-01-17 13:10:00,38.0,26.5,29.98,SW,225,4.3,4.9,63,0.00,,,0.00,WUHU216HW,2013-01-17 18:10:00,
2013-01-17 13:15:00,38.2,25.8,29.98,WNW,293,2.5,5.4,61,0.00,,,0.00,WUHU216HW,2013-01-17 18:15:00,
2013-01-17 13:20:00,38.3,26.4,29.97,NW,315,1.1,5.4,62,0.00,,,0.00,WUHU216HW,2013-01-17 18:20:00,
2013-01-17 13:25:00,38.5,25.4,29.97,NW,315,5.4,5.4,59,0.00,,,0.00,WUHU216HW,2013-01-17 18:25:00,
2013-01-17 13:30:00,38.7,25.1,29.96,West,270,6.9,6.9,58,0.00,,,0.00,WUHU216HW,2013-01-17 18:30:00,
2013-01-17 13:35:00,38.7,25.1,29.97,WNW,293,1.1,6.9,58,0.00,,,0.00,WUHU216HW,2013-01-17 18:35:00,
2013-01-17 13:40:00,38.7,25.1,29.96,WNW,293,5.6,5.6,58,0.00,,,0.00,WUHU216HW,2013-01-17 18:40:00,
2013-01-17 13:45:00,38.5,24.5,29.96,SW,225,6.5,7.2,57,0.00,,,0.00,WUHU216HW,2013-01-17 18:45:00,
2013-01-17 13:50:00,38.5,25.8,29.96,SW,225,4.3,7.2,60,0.00,,,0.00,WUHU216HW,2013-01-17 18:50:00,
2013-01-17 13:55:00,38.5,24.9,29.96,West,270,2.7,8.1,58,0.00,,,0.00,WUHU216HW,2013-01-17 18:55:00,
2013-01-17 14:00:00,38.9,25.3,29.96,West,270,1.1,8.1,58,0.00,,,0.00,WUHU216HW,2013-01-17 19:00:00,
2013-01-17 14:05:00,39.2,25.6,29.96,West,270,4.7,8.5,58,0.00,,,0.00,WUHU216HW,2013-01-17 19:05:00,
2013-01-17 14:10:00,39.6,25.9,29.95,West,270,2.7,8.5,58,0.00,,,0.00,WUHU216HW,2013-01-17 19:10:00,
2013-01-17 14:15:00,40.1,25.6,29.95,West,270,1.3,7.6,56,0.00,,,0.00,WUHU216HW,2013-01-17 19:15:00,
2013-01-17 14:20:00,40.0,25.4,29.94,West,270,1.8,5.4,56,0.00,,,0.00,WUHU216HW,2013-01-17 19:20:00,
2013-01-17 14:25:00,40.5,25.5,29.95,West,270,3.8,3.8,55,0.00,,,0.00,WUHU216HW,2013-01-17 19:25:00,
2013-01-17 14:30:00,40.1,24.8,29.94,WSW,248,10.1,10.1,54,0.00,,,0.00,WUHU216HW,2013-01-17 19:30:00,
2013-01-17 14:35:00,39.4,24.5,29.94,West,270,2.5,10.1,55,0.00,,,0.00,WUHU216HW,2013-01-17 19:35:00,
2013-01-17 14:40:00,39.6,25.1,29.94,NNE,23,2.5,6.7,56,0.00,,,0.00,WUHU216HW,2013-01-17 19:40:00,
2013-01-17 14:45:00,40.3,25.7,29.94,SE,135,1.1,6.7,56,0.00,,,0.00,WUHU216HW,2013-01-17 19:45:00,
2013-01-17 14:50:00,40.7,23.9,29.94,SW,225,4.7,5.8,51,0.00,,,0.00,WUHU216HW,2013-01-17 19:50:00,
2013-01-17 14:55:00,40.3,24.5,29.93,WNW,293,2.5,5.8,53,0.00,,,0.00,WUHU216HW,2013-01-17 19:55:00,
2013-01-17 15:00:00,40.0,24.1,29.93,SW,225,5.4,5.8,53,0.00,,,0.00,WUHU216HW,2013-01-17 20:00:00,
2013-01-17 15:05:00,39.8,24.0,29.93,North,0,2.0,9.2,53,0.00,,,0.00,WUHU216HW,2013-01-17 20:05:00,
2013-01-17 15:10:00,40.0,24.1,29.93,SW,225,3.4,9.2,53,0.00,,,0.00,WUHU216HW,2013-01-17 20:10:00,
2013-01-17 15:15:00,40.1,24.3,29.93,West,270,4.0,4.9,53,0.00,,,0.00,WUHU216HW,2013-01-17 20:15:00,
2013-01-17 15:20:00,40.1,24.3,29.93,WSW,248,5.4,5.4,53,0.00,,,0.00,WUHU216HW,2013-01-17 20:20:00,
2013-01-17 15:25:00,40.1,23.9,29.93,NNW,338,4.3,8.9,52,0.00,,,0.00,WUHU216HW,2013-01-17 20:25:00,
2013-01-17 15:30:00,40.0,23.2,29.93,West,270,7.4,8.9,51,0.00,,,0.00,WUHU216HW,2013-01-17 20:30:00,
2013-01-17 15:35:00,39.4,23.1,29.93,West,270,5.1,7.4,52,0.00,,,0.00,WUHU216HW,2013-01-17 20:35:00,
2013-01-17 15:40:00,39.1,23.3,29.94,WNW,293,2.5,6.9,53,0.00,,,0.00,WUHU216HW,2013-01-17 20:40:00,
2013-01-17 15:45:00,38.5,22.3,29.94,NW,315,4.5,5.8,52,0.00,,,0.00,WUHU216HW,2013-01-17 20:45:00,
2013-01-17 15:50:00,38.7,23.0,29.94,West,270,3.4,5.8,53,0.00,,,0.00,WUHU216HW,2013-01-17 20:50:00,
2013-01-17 15:55:00,38.7,23.0,29.94,West,270,4.5,5.1,53,0.00,,,0.00,WUHU216HW,2013-01-17 20:55:00,
2013-01-17 16:00:00,38.5,22.8,29.94,NW,315,2.5,5.1,53,0.00,,,0.00,WUHU216HW,2013-01-17 21:00:00,
2013-01-17 16:05:00,38.2,22.5,29.95,WNW,293,2.7,4.0,53,0.00,,,0.00,WUHU216HW,2013-01-17 21:05:00,
2013-01-17 16:10:00,38.3,23.0,29.95,NW,315,1.8,4.0,54,0.00,,,0.00,WUHU216HW,2013-01-17 21:10:00,
2013-01-17 16:15:00,38.2,21.6,29.95,NW,315,4.7,5.4,51,0.00,,,0.00,WUHU216HW,2013-01-17 21:15:00,
2013-01-17 16:20:00,37.8,20.9,29.95,ENE,68,3.8,8.9,50,0.00,,,0.00,WUHU216HW,2013-01-17 21:20:00,
2013-01-17 16:25:00,37.8,20.4,29.95,NNW,338,10.1,10.1,49,0.00,,,0.00,WUHU216HW,2013-01-17 21:25:00,
2013-01-17 16:30:00,37.4,19.0,29.95,NNW,338,2.5,10.1,47,0.00,,,0.00,WUHU216HW,2013-01-17 21:30:00,
2013-01-17 16:35:00,37.1,18.6,29.95,NNW,338,9.8,9.8,47,0.00,,,0.00,WUHU216HW,2013-01-17 21:35:00,
2013-01-17 16:40:00,36.9,19.0,29.95,WNW,293,6.3,9.8,48,0.00,,,0.00,WUHU216HW,2013-01-17 21:40:00,
2013-01-17 16:45:00,36.7,19.4,29.96,WSW,248,3.4,6.3,49,0.00,,,0.00,WUHU216HW,2013-01-17 21:45:00,
2013-01-17 16:50:00,36.4,19.5,29.96,SW,225,2.9,4.9,50,0.00,,,0.00,WUHU216HW,2013-01-17 21:50:00,
2013-01-17 16:55:00,36.0,19.3,29.96,WNW,293,1.3,5.1,50,0.00,,,0.00,WUHU216HW,2013-01-17 21:55:00,
2013-01-17 17:00:00,35.6,19.8,29.97,North,0,1.1,5.4,52,0.00,,,0.00,WUHU216HW,2013-01-17 22:00:00,
2013-01-17 17:05:00,35.3,19.5,29.97,NW,315,2.7,5.4,52,0.00,,,0.00,WUHU216HW,2013-01-17 22:05:00,
2013-01-17 17:10:00,34.9,19.1,29.98,SSW,203,6.5,6.5,52,0.00,,,0.00,WUHU216HW,2013-01-17 22:10:00,
2013-01-17 17:15:00,34.6,18.3,29.98,WSW,248,3.4,6.5,51,0.00,,,0.00,WUHU216HW,2013-01-17 22:15:00,
2013-01-17 17:20:00,34.2,18.7,29.98,West,270,1.8,5.6,53,0.00,,,0.00,WUHU216HW,2013-01-17 22:20:00,
2013-01-17 17:25:00,33.8,18.0,29.99,NNW,338,3.6,5.6,52,0.00,,,0.00,WUHU216HW,2013-01-17 22:25:00,
2013-01-17 17:30:00,33.5,18.1,29.99,NNW,338,4.0,5.4,53,0.00,,,0.00,WUHU216HW,2013-01-17 22:30:00,
2013-01-17 17:35:00,33.5,18.6,29.99,North,0,2.5,4.0,54,0.00,,,0.00,WUHU216HW,2013-01-17 22:35:00,
2013-01-17 17:40:00,32.9,18.5,30.00,SW,225,4.0,4.0,55,0.00,,,0.00,WUHU216HW,2013-01-17 22:40:00,
2013-01-17 17:45:00,32.8,18.7,30.00,West,270,3.1,4.0,56,0.00,,,0.00,WUHU216HW,2013-01-17 22:45:00,
2013-01-17 17:50:00,32.4,17.6,30.00,NW,315,4.7,4.7,54,0.00,,,0.00,WUHU216HW,2013-01-17 22:50:00,
2013-01-17 17:55:00,32.0,17.2,30.00,North,0,3.4,7.8,54,0.00,,,0.00,WUHU216HW,2013-01-17 22:55:00,
2013-01-17 18:00:00,31.9,17.0,30.00,West,270,0.9,7.8,54,0.00,,,0.00,WUHU216HW,2013-01-17 23:00:00,
2013-01-17 18:05:00,31.5,16.8,30.01,WNW,293,3.4,7.4,54,0.00,,,0.00,WUHU216HW,2013-01-17 23:05:00,
2013-01-17 18:10:00,31.3,16.6,30.01,NNW,338,8.7,8.7,54,0.00,,,0.00,WUHU216HW,2013-01-17 23:10:00,
2013-01-17 18:15:00,31.1,16.8,30.02,West,270,1.6,8.7,55,0.00,,,0.00,WUHU216HW,2013-01-17 23:15:00,
2013-01-17 18:20:00,31.0,16.7,30.02,NW,315,5.1,5.1,55,0.00,,,0.00,WUHU216HW,2013-01-17 23:20:00,
2013-01-17 18:25:00,30.6,16.3,30.03,WSW,248,3.1,5.6,55,0.00,,,0.00,WUHU216HW,2013-01-17 23:25:00,
2013-01-17 18:30:00,30.4,16.1,30.03,WNW,293,4.7,7.6,55,0.00,,,0.00,WUHU216HW,2013-01-17 23:30:00,
2013-01-17 18:35:00,30.1,16.2,30.04,NNW,338,5.4,7.6,56,0.00,,,0.00,WUHU216HW,2013-01-17 23:35:00,
2013-01-17 18:40:00,29.9,16.0,30.04,West,270,1.3,7.8,56,0.00,,,0.00,WUHU216HW,2013-01-17 23:40:00,
2013-01-17 18:45:00,29.5,15.7,30.05,NW,315,3.6,7.8,56,0.00,,,0.00,WUHU216HW,2013-01-17 23:45:00,
2013-01-17 18:50:00,29.2,15.8,30.05,WNW,293,3.1,7.4,57,0.00,,,0.00,WUHU216HW,2013-01-17 23:50:00,
2013-01-17 18:55:00,29.0,16.0,30.05,WNW,293,2.2,7.2,58,0.00,,,0.00,WUHU216HW,2013-01-17 23:55:00,
2013-01-17 19:00:00,28.6,15.8,30.05,West,270,2.2,5.4,58,0.00,,,0.00,WUHU216HW,2013-01-18 00:00:00,
2013-01-17 19:05:00,28.4,15.9,30.06,NW,315,1.3,5.4,59,0.00,,,0.00,WUHU216HW,2013-01-18 00:05:00,
2013-01-17 19:10:00,28.3,15.8,30.06,North,0,2.2,7.6,59,0.00,,,0.00,WUHU216HW,2013-01-18 00:10:00,
2013-01-17 19:15:00,28.1,16.0,30.07,NW,315,5.8,8.5,60,0.00,,,0.00,WUHU216HW,2013-01-18 00:15:00,
2013-01-17 19:20:00,27.7,15.2,30.07,NNW,338,4.0,8.5,59,0.00,,,0.00,WUHU216HW,2013-01-18 00:20:00,
2013-01-17 19:25:00,27.4,15.3,30.07,West,270,3.4,5.4,60,0.00,,,0.00,WUHU216HW,2013-01-18 00:25:00,
2013-01-17 19:30:00,27.0,15.3,30.08,NE,45,3.1,4.7,61,0.00,,,0.00,WUHU216HW,2013-01-18 00:30:00,
2013-01-17 19:35:00,26.8,15.1,30.08,West,270,3.1,4.7,61,0.00,,,0.00,WUHU216HW,2013-01-18 00:35:00,
2013-01-17 19:40:00,26.5,14.8,30.08,WSW,248,5.4,8.3,61,0.00,,,0.00,WUHU216HW,2013-01-18 00:40:00,
2013-01-17 19:45:00,26.3,14.2,30.09,SW,225,5.8,8.3,60,0.00,,,0.00,WUHU216HW,2013-01-18 00:45:00,
2013-01-17 19:50:00,26.1,14.1,30.09,WSW,248,2.9,7.8,60,0.00,,,0.00,WUHU216HW,2013-01-18 00:50:00,
2013-01-17 19:55:00,25.7,14.1,30.09,West,270,2.7,7.8,61,0.00,,,0.00,WUHU216HW,2013-01-18 00:55:00,
2013-01-17 20:00:00,25.6,14.0,30.09,NW,315,4.5,6.5,61,0.00,,,0.00,WUHU216HW,2013-01-18 01:00:00,
2013-01-17 20:05:00,25.4,13.8,30.10,NNW,338,4.0,4.9,61,0.00,,,0.00,WUHU216HW,2013-01-18 01:05:00,
2013-01-17 20:10:00,25.2,14.0,30.10,WNW,293,4.9,4.9,62,0.00,,,0.00,WUHU216HW,2013-01-18 01:10:00,
2013-01-17 20:15:00,25.0,13.8,30.10,WSW,248,7.4,7.4,62,0.00,,,0.00,WUHU216HW,2013-01-18 01:15:00,
2013-01-17 20:20:00,24.8,13.7,30.10,WNW,293,7.4,9.2,62,0.00,,,0.00,WUHU216HW,2013-01-18 01:20:00,
2013-01-17 20:25:00,24.5,13.0,30.11,WSW,248,4.5,9.2,61,0.00,,,0.00,WUHU216HW,2013-01-18 01:25:00,
2013-01-17 20:30:00,24.3,12.4,30.11,WSW,248,4.7,6.9,60,0.00,,,0.00,WUHU216HW,2013-01-18 01:30:00,
2013-01-17 20:35:00,24.1,12.6,30.12,NW,315,2.0,5.4,61,0.00,,,0.00,WUHU216HW,2013-01-18 01:35:00,
2013-01-17 20:40:00,23.9,12.4,30.12,NNW,338,3.1,5.4,61,0.00,,,0.00,WUHU216HW,2013-01-18 01:40:00,
2013-01-17 20:45:00,23.9,12.4,30.12,West,270,2.5,5.4,61,0.00,,,0.00,WUHU216HW,2013-01-18 01:45:00,
2013-01-17 20:50:00,23.6,12.1,30.12,NW,315,8.3,8.3,61,0.00,,,0.00,WUHU216HW,2013-01-18 01:50:00,
2013-01-17 20:55:00,23.4,11.5,30.12,NNW,338,3.4,8.3,60,0.00,,,0.00,WUHU216HW,2013-01-18 01:55:00,
2013-01-17 21:00:00,23.2,11.0,30.12,NW,315,5.6,5.6,59,0.00,,,0.00,WUHU216HW,2013-01-18 02:00:00,
2013-01-17 21:05:00,23.0,10.8,30.12,West,270,3.8,6.5,59,0.00,,,0.00,WUHU216HW,2013-01-18 02:05:00,
2013-01-17 21:10:00,23.0,10.8,30.12,NW,315,5.8,6.5,59,0.00,,,0.00,WUHU216HW,2013-01-18 02:10:00,
2013-01-17 21:15:00,22.9,10.2,30.12,WSW,248,4.3,8.1,58,0.00,,,0.00,WUHU216HW,2013-01-18 02:15:00,
2013-01-17 21:20:00,22.7,10.1,30.12,WNW,293,6.0,8.1,58,0.00,,,0.00,WUHU216HW,2013-01-18 02:20:00,
2013-01-17 21:25:00,22.7,10.1,30.13,NW,315,5.4,6.3,58,0.00,,,0.00,WUHU216HW,2013-01-18 02:25:00,
2013-01-17 21:30:00,22.5,9.9,30.13,NNW,338,6.9,6.9,58,0.00,,,0.00,WUHU216HW,2013-01-18 02:30:00,
2013-01-17 21:35:00,22.3,9.7,30.13,NNW,338,3.4,6.9,58,0.00,,,0.00,WUHU216HW,2013-01-18 02:35:00,
2013-01-17 21:40:00,22.1,9.9,30.13,WSW,248,3.4,4.5,59,0.00,,,0.00,WUHU216HW,2013-01-18 02:40:00,
2013-01-17 21:45:00,22.0,9.8,30.13,West,270,2.7,5.4,59,0.00,,,0.00,WUHU216HW,2013-01-18 02:45:00,
2013-01-17 21:50:00,22.0,9.8,30.13,NW,315,2.5,5.4,59,0.00,,,0.00,WUHU216HW,2013-01-18 02:50:00,
2013-01-17 21:55:00,22.0,9.8,30.13,NW,315,4.0,5.6,59,0.00,,,0.00,WUHU216HW,2013-01-18 02:55:00,
2013-01-17 22:00:00,21.8,9.6,30.13,WNW,293,3.6,5.6,59,0.00,,,0.00,WUHU216HW,2013-01-18 03:00:00,
2013-01-17 22:05:00,21.8,9.6,30.13,NNW,338,2.7,4.0,59,0.00,,,0.00,WUHU216HW,2013-01-18 03:05:00,
2013-01-17 22:10:00,21.8,9.6,30.13,NNW,338,2.7,4.0,59,0.00,,,0.00,WUHU216HW,2013-01-18 03:10:00,
2013-01-17 22:16:00,21.4,9.3,30.14,WNW,293,4.7,4.7,59,0.00,,,0.00,WUHU216HW,2013-01-18 03:16:00,
2013-01-17 22:21:00,21.4,8.9,30.14,West,270,4.0,4.7,58,0.00,,,0.00,WUHU216HW,2013-01-18 03:21:00,
2013-01-17 22:26:00,21.2,8.7,30.13,NW,315,3.4,4.0,58,0.00,,,0.00,WUHU216HW,2013-01-18 03:26:00,
2013-01-17 22:31:00,21.2,9.1,30.14,North,0,2.2,3.4,59,0.00,,,0.00,WUHU216HW,2013-01-18 03:31:00,
2013-01-17 22:36:00,21.2,9.1,30.14,North,0,2.2,2.5,59,0.00,,,0.00,WUHU216HW,2013-01-18 03:36:00,
2013-01-17 22:41:00,21.2,8.7,30.14,NW,315,1.8,1.8,58,0.00,,,0.00,WUHU216HW,2013-01-18 03:41:00,
2013-01-17 22:46:00,21.1,8.6,30.14,NE,45,3.8,3.8,58,0.00,,,0.00,WUHU216HW,2013-01-18 03:46:00,
2013-01-17 22:51:00,21.1,8.6,30.14,WNW,293,2.7,5.6,58,0.00,,,0.00,WUHU216HW,2013-01-18 03:51:00,
2013-01-17 22:56:00,21.1,8.6,30.14,WNW,293,2.7,5.6,58,0.00,,,0.00,WUHU216HW,2013-01-18 03:56:00,
2013-01-17 23:01:00,20.9,8.4,30.14,NW,315,0.7,0.7,58,0.00,,,0.00,WUHU216HW,2013-01-18 04:01:00,
2013-01-17 23:06:00,20.9,8.4,30.14,NW,315,0.7,0.7,58,0.00,,,0.00,WUHU216HW,2013-01-18 04:06:00,
2013-01-17 23:11:00,20.5,8.4,30.14,NNW,338,0.7,1.3,59,0.00,,,0.00,WUHU216HW,2013-01-18 04:11:00,
2013-01-17 23:16:00,20.5,8.4,30.14,NNW,338,0.7,1.3,59,0.00,,,0.00,WUHU216HW,2013-01-18 04:16:00,